sensor_id;sensor_type;location;lat;lon;timestamp;pressure;altitude;pressure_sealevel;temperature;humidity
80242;BME280;69556;45.004;7.532;2024-02-21T00:00:33;99420.88;;;6.27;79.08
80242;BME280;69556;45.004;7.532;2024-02-21T00:02:58;99416.50;;;6.26;79.35
80242;BME280;69556;45.004;7.532;2024-02-21T00:05:27;99413.91;;;6.29;80.60
80242;BME280;69556;45.004;7.532;2024-02-21T00:07:52;99409.53;;;6.28;82.12
80242;BME280;69556;45.004;7.532;2024-02-21T00:10:17;99406.03;;;6.26;82.89
80242;BME280;69556;45.004;7.532;2024-02-21T00:12:43;99406.03;;;6.27;82.76
80242;BME280;69556;45.004;7.532;2024-02-21T00:15:09;99404.28;;;6.26;82.81
80242;BME280;69556;45.004;7.532;2024-02-21T00:17:34;99408.69;;;6.23;83.10
80242;BME280;69556;45.004;7.532;2024-02-21T00:19:59;99419.16;;;6.23;82.59
80242;BME280;69556;45.004;7.532;2024-02-21T00:22:25;99409.56;;;6.25;82.89
80242;BME280;69556;45.004;7.532;2024-02-21T00:24:53;99420.91;;;6.25;83.04
80242;BME280;69556;45.004;7.532;2024-02-21T00:27:18;99419.16;;;6.23;82.63
80242;BME280;69556;45.004;7.532;2024-02-21T00:29:44;99405.19;;;6.19;82.91
80242;BME280;69556;45.004;7.532;2024-02-21T00:32:09;99420.03;;;6.25;82.90
80242;BME280;69556;45.004;7.532;2024-02-21T00:34:34;99414.81;;;6.17;82.76
80242;BME280;69556;45.004;7.532;2024-02-21T00:37:00;99408.69;;;6.16;83.01
80242;BME280;69556;45.004;7.532;2024-02-21T00:39:26;99409.59;;;6.14;82.77
80242;BME280;69556;45.004;7.532;2024-02-21T00:41:51;99406.97;;;6.14;83.10
80242;BME280;69556;45.004;7.532;2024-02-21T00:44:16;99413.09;;;6.08;83.16
80242;BME280;69556;45.004;7.532;2024-02-21T00:46:42;99406.13;;;6.04;83.43
80242;BME280;69556;45.004;7.532;2024-02-21T00:49:07;99408.72;;;6.04;83.23
80242;BME280;69556;45.004;7.532;2024-02-21T00:51:33;99409.59;;;6.09;82.48
80242;BME280;69556;45.004;7.532;2024-02-21T00:53:58;99399.09;;;6.09;82.71
80242;BME280;69556;45.004;7.532;2024-02-21T00:56:24;99404.34;;;6.11;82.42
80242;BME280;69556;45.004;7.532;2024-02-21T00:58:49;99401.75;;;6.11;82.33
80242;BME280;69556;45.004;7.532;2024-02-21T01:01:24;99399.09;;;6.09;82.69
80242;BME280;69556;45.004;7.532;2024-02-21T01:03:50;99404.34;;;6.11;82.69
80242;BME280;69556;45.004;7.532;2024-02-21T01:06:18;99399.97;;;6.11;83.02
80242;BME280;69556;45.004;7.532;2024-02-21T01:08:43;99398.25;;;5.98;82.73
80242;BME280;69556;45.004;7.532;2024-02-21T01:11:08;99401.75;;;5.94;83.32
80242;BME280;69556;45.004;7.532;2024-02-21T01:13:34;99397.41;;;5.93;83.69
80242;BME280;69556;45.004;7.532;2024-02-21T01:15:59;99393.03;;;5.91;83.83
80242;BME280;69556;45.004;7.532;2024-02-21T01:18:24;99400.91;;;5.91;82.99
80242;BME280;69556;45.004;7.532;2024-02-21T01:20:51;99403.53;;;5.88;82.90
80242;BME280;69556;45.004;7.532;2024-02-21T01:23:16;99398.28;;;5.75;83.35
80242;BME280;69556;45.004;7.532;2024-02-21T01:25:41;99405.28;;;5.73;83.79
80242;BME280;69556;45.004;7.532;2024-02-21T01:28:07;99398.31;;;5.63;84.59
80242;BME280;69556;45.004;7.532;2024-02-21T01:30:33;99395.69;;;5.62;85.06
80242;BME280;69556;45.004;7.532;2024-02-21T01:32:58;99389.59;;;5.54;84.72
80242;BME280;69556;45.004;7.532;2024-02-21T01:35:23;99389.59;;;5.45;84.95
80242;BME280;69556;45.004;7.532;2024-02-21T01:37:49;99389.56;;;5.42;85.22
80242;BME280;69556;45.004;7.532;2024-02-21T01:40:14;99392.22;;;5.43;85.50
80242;BME280;69556;45.004;7.532;2024-02-21T01:42:40;99388.72;;;5.35;85.91
80242;BME280;69556;45.004;7.532;2024-02-21T01:45:06;99386.09;;;5.30;85.75
80242;BME280;69556;45.004;7.532;2024-02-21T01:47:31;99391.34;;;5.24;85.53
80242;BME280;69556;45.004;7.532;2024-02-21T01:49:57;99402.69;;;5.26;86.06
80242;BME280;69556;45.004;7.532;2024-02-21T01:52:22;99386.09;;;5.18;85.86
80242;BME280;69556;45.004;7.532;2024-02-21T01:54:48;99380.88;;;5.20;86.34
80242;BME280;69556;45.004;7.532;2024-02-21T01:57:14;99386.97;;;5.14;85.94
80242;BME280;69556;45.004;7.532;2024-02-21T01:59:40;99391.31;;;5.09;86.54
80242;BME280;69556;45.004;7.532;2024-02-21T02:02:05;99393.94;;;5.08;87.43
80242;BME280;69556;45.004;7.532;2024-02-21T02:04:31;99400.03;;;5.05;87.73
80242;BME280;69556;45.004;7.532;2024-02-21T02:06:59;99393.06;;;5.13;88.58
80242;BME280;69556;45.004;7.532;2024-02-21T02:09:27;99391.34;;;5.24;88.27
80242;BME280;69556;45.004;7.532;2024-02-21T02:11:52;99404.41;;;5.27;88.27
80242;BME280;69556;45.004;7.532;2024-02-21T02:14:18;99407.06;;;5.35;87.90
80242;BME280;69556;45.004;7.532;2024-02-21T02:16:46;99405.31;;;5.40;87.47
80242;BME280;69556;45.004;7.532;2024-02-21T02:19:12;99398.31;;;5.41;87.37
80242;BME280;69556;45.004;7.532;2024-02-21T02:21:39;99400.94;;;5.39;87.35
80242;BME280;69556;45.004;7.532;2024-02-21T02:24:07;99393.94;;;5.44;87.73
80242;BME280;69556;45.004;7.532;2024-02-21T02:26:32;99400.06;;;5.48;87.16
80242;BME280;69556;45.004;7.532;2024-02-21T02:28:58;99391.34;;;5.33;86.69
80242;BME280;69556;45.004;7.532;2024-02-21T02:31:23;99395.69;;;5.28;86.80
80242;BME280;69556;45.004;7.532;2024-02-21T02:33:48;99392.22;;;5.17;87.16
80242;BME280;69556;45.004;7.532;2024-02-21T02:36:14;99399.16;;;5.02;87.31
80242;BME280;69556;45.004;7.532;2024-02-21T02:38:39;99389.56;;;4.87;87.79
80242;BME280;69556;45.004;7.532;2024-02-21T02:41:05;99386.09;;;4.85;88.06
80242;BME280;69556;45.004;7.532;2024-02-21T02:43:30;99381.69;;;4.85;88.66
80242;BME280;69556;45.004;7.532;2024-02-21T02:45:56;99372.13;;;4.84;88.62
80242;BME280;69556;45.004;7.532;2024-02-21T02:48:22;99368.63;;;4.82;89.27
80242;BME280;69556;45.004;7.532;2024-02-21T02:50:47;99371.25;;;4.82;89.12
80242;BME280;69556;45.004;7.532;2024-02-21T02:53:14;99365.13;;;4.82;89.26
80242;BME280;69556;45.004;7.532;2024-02-21T02:55:40;99359.03;;;4.80;89.49
80242;BME280;69556;45.004;7.532;2024-02-21T02:58:05;99359.03;;;4.81;89.54
80242;BME280;69556;45.004;7.532;2024-02-21T03:00:30;99365.16;;;4.80;89.36
80242;BME280;69556;45.004;7.532;2024-02-21T03:02:56;99355.53;;;4.66;88.61
80242;BME280;69556;45.004;7.532;2024-02-21T03:05:21;99366.00;;;4.73;89.05
80242;BME280;69556;45.004;7.532;2024-02-21T03:07:48;99365.16;;;4.88;88.44
80242;BME280;69556;45.004;7.532;2024-02-21T03:10:14;99361.66;;;5.01;87.51
80242;BME280;69556;45.004;7.532;2024-02-21T03:12:41;99352.97;;;4.99;87.27
80242;BME280;69556;45.004;7.532;2024-02-21T03:15:07;99347.69;;;4.90;87.02
80242;BME280;69556;45.004;7.532;2024-02-21T03:17:33;99358.16;;;4.81;87.21
80242;BME280;69556;45.004;7.532;2024-02-21T03:20:04;99347.69;;;4.82;87.72
80242;BME280;69556;45.004;7.532;2024-02-21T03:22:30;99358.16;;;4.81;87.66
80242;BME280;69556;45.004;7.532;2024-02-21T03:24:56;99357.28;;;4.83;87.69
80242;BME280;69556;45.004;7.532;2024-02-21T03:27:21;99354.69;;;4.88;87.17
80242;BME280;69556;45.004;7.532;2024-02-21T03:29:46;99359.06;;;4.97;86.99
80242;BME280;69556;45.004;7.532;2024-02-21T03:32:12;99361.66;;;4.91;87.41
80242;BME280;69556;45.004;7.532;2024-02-21T03:34:37;99371.25;;;4.84;86.72
80242;BME280;69556;45.004;7.532;2024-02-21T03:37:03;99369.50;;;4.71;86.84
80242;BME280;69556;45.004;7.532;2024-02-21T03:39:31;99371.22;;;4.66;86.74
80242;BME280;69556;45.004;7.532;2024-02-21T03:41:56;99372.94;;;4.68;86.91
80242;BME280;69556;45.004;7.532;2024-02-21T03:44:23;99367.72;;;4.65;86.91
80242;BME280;69556;45.004;7.532;2024-02-21T03:46:48;99359.84;;;4.58;86.69
80242;BME280;69556;45.004;7.532;2024-02-21T03:49:13;99362.47;;;4.58;85.89
80242;BME280;69556;45.004;7.532;2024-02-21T03:51:38;99365.97;;;4.57;86.44
80242;BME280;69556;45.004;7.532;2024-02-21T03:54:04;99352.91;;;4.57;87.10
80242;BME280;69556;45.004;7.532;2024-02-21T03:56:29;99360.72;;;4.55;86.49
80242;BME280;69556;45.004;7.532;2024-02-21T03:58:54;99357.22;;;4.53;87.00
80242;BME280;69556;45.004;7.532;2024-02-21T04:01:20;99365.09;;;4.55;87.30
80242;BME280;69556;45.004;7.532;2024-02-21T04:03:45;99375.56;;;4.61;87.21
80242;BME280;69556;45.004;7.532;2024-02-21T04:06:11;99377.31;;;4.62;86.34
80242;BME280;69556;45.004;7.532;2024-02-21T04:08:37;99373.84;;;4.66;86.82
80242;BME280;69556;45.004;7.532;2024-02-21T04:11:02;99371.22;;;4.73;86.08
80242;BME280;69556;45.004;7.532;2024-02-21T04:13:28;99374.72;;;4.78;86.70
80242;BME280;69556;45.004;7.532;2024-02-21T04:15:53;99366.88;;;4.75;86.62
80242;BME280;69556;45.004;7.532;2024-02-21T04:18:19;99366.88;;;4.78;86.46
80242;BME280;69556;45.004;7.532;2024-02-21T04:20:44;99367.75;;;4.82;86.70
80242;BME280;69556;45.004;7.532;2024-02-21T04:23:09;99366.88;;;4.91;85.50
80242;BME280;69556;45.004;7.532;2024-02-21T04:25:35;99367.78;;;4.90;85.51
80242;BME280;69556;45.004;7.532;2024-02-21T04:28:01;99368.63;;;4.95;86.13
80242;BME280;69556;45.004;7.532;2024-02-21T04:30:26;99370.38;;;4.93;85.77
80242;BME280;69556;45.004;7.532;2024-02-21T04:32:51;99366.88;;;4.95;86.01
80242;BME280;69556;45.004;7.532;2024-02-21T04:35:17;99357.31;;;4.93;86.79
80242;BME280;69556;45.004;7.532;2024-02-21T04:37:42;99379.09;;;4.96;86.54
80242;BME280;69556;45.004;7.532;2024-02-21T04:40:08;99385.22;;;4.97;85.74
80242;BME280;69556;45.004;7.532;2024-02-21T04:42:34;99387.81;;;5.04;85.74
80242;BME280;69556;45.004;7.532;2024-02-21T04:44:59;99390.44;;;5.13;85.49
80242;BME280;69556;45.004;7.532;2024-02-21T04:47:25;99383.50;;;5.17;85.41
80242;BME280;69556;45.004;7.532;2024-02-21T04:49:50;99387.84;;;5.16;84.67
80242;BME280;69556;45.004;7.532;2024-02-21T04:52:16;99378.25;;;5.15;84.00
80242;BME280;69556;45.004;7.532;2024-02-21T04:54:41;99400.03;;;5.14;84.58
80242;BME280;69556;45.004;7.532;2024-02-21T04:57:06;99396.56;;;5.06;83.76
80242;BME280;69556;45.004;7.532;2024-02-21T04:59:32;99397.44;;;5.04;83.60
80242;BME280;69556;45.004;7.532;2024-02-21T05:01:57;99402.66;;;5.02;82.92
80242;BME280;69556;45.004;7.532;2024-02-21T05:04:24;99397.44;;;5.08;82.55
80242;BME280;69556;45.004;7.532;2024-02-21T05:06:49;99395.69;;;5.10;82.30
80242;BME280;69556;45.004;7.532;2024-02-21T05:09:14;99393.09;;;5.16;82.05
80242;BME280;69556;45.004;7.532;2024-02-21T05:11:40;99390.47;;;5.18;82.95
80242;BME280;69556;45.004;7.532;2024-02-21T05:14:05;99399.19;;;5.26;82.40
80242;BME280;69556;45.004;7.532;2024-02-21T05:16:31;99391.34;;;5.20;82.62
80242;BME280;69556;45.004;7.532;2024-02-21T05:18:57;99393.06;;;5.19;82.97
80242;BME280;69556;45.004;7.532;2024-02-21T05:21:23;99397.44;;;5.13;82.43
80242;BME280;69556;45.004;7.532;2024-02-21T05:23:49;99407.03;;;5.15;83.33
80242;BME280;69556;45.004;7.532;2024-02-21T05:26:24;99401.78;;;5.14;82.90
80242;BME280;69556;45.004;7.532;2024-02-21T05:28:50;99406.13;;;5.09;81.83
80242;BME280;69556;45.004;7.532;2024-02-21T05:31:18;99400.91;;;5.04;81.51
80242;BME280;69556;45.004;7.532;2024-02-21T05:33:44;99396.53;;;5.00;80.30
80242;BME280;69556;45.004;7.532;2024-02-21T05:36:11;99400.03;;;4.96;80.65
80242;BME280;69556;45.004;7.532;2024-02-21T05:38:36;99379.09;;;4.79;81.20
80242;BME280;69556;45.004;7.532;2024-02-21T05:41:02;99388.66;;;4.74;81.08
80242;BME280;69556;45.004;7.532;2024-02-21T05:43:28;99393.03;;;4.74;81.30
80242;BME280;69556;45.004;7.532;2024-02-21T05:45:53;99379.06;;;4.72;81.01
80242;BME280;69556;45.004;7.532;2024-02-21T05:48:19;99382.56;;;4.69;81.85
80242;BME280;69556;45.004;7.532;2024-02-21T05:50:45;99382.53;;;4.68;81.43
80242;BME280;69556;45.004;7.532;2024-02-21T05:53:10;99386.03;;;4.65;81.69
80242;BME280;69556;45.004;7.532;2024-02-21T05:55:36;99393.00;;;4.66;82.62
80242;BME280;69556;45.004;7.532;2024-02-21T05:58:02;99379.03;;;4.58;82.95
80242;BME280;69556;45.004;7.532;2024-02-21T06:00:28;99391.25;;;4.61;82.46
80242;BME280;69556;45.004;7.532;2024-02-21T06:02:53;99389.50;;;4.63;82.04
80242;BME280;69556;45.004;7.532;2024-02-21T06:05:18;99381.63;;;4.58;81.81
80242;BME280;69556;45.004;7.532;2024-02-21T06:07:44;99390.38;;;4.62;80.96
80242;BME280;69556;45.004;7.532;2024-02-21T06:10:09;99388.63;;;4.67;80.27
80242;BME280;69556;45.004;7.532;2024-02-21T06:12:35;99386.09;;;4.85;75.68
80242;BME280;69556;45.004;7.532;2024-02-21T06:15:00;99379.97;;;4.91;76.05
80242;BME280;69556;45.004;7.532;2024-02-21T06:17:25;99379.97;;;4.92;75.90
80242;BME280;69556;45.004;7.532;2024-02-21T06:19:51;99388.69;;;4.85;76.69
80242;BME280;69556;45.004;7.532;2024-02-21T06:22:16;99395.66;;;4.80;75.22
80242;BME280;69556;45.004;7.532;2024-02-21T06:24:41;99402.59;;;4.76;75.39
80242;BME280;69556;45.004;7.532;2024-02-21T06:27:07;99402.59;;;4.73;75.97
80242;BME280;69556;45.004;7.532;2024-02-21T06:29:33;99400.88;;;4.91;70.81
80242;BME280;69556;45.004;7.532;2024-02-21T06:31:59;99411.38;;;4.89;72.02
80242;BME280;69556;45.004;7.532;2024-02-21T06:34:24;99413.97;;;4.80;73.84
80242;BME280;69556;45.004;7.532;2024-02-21T06:36:50;99416.56;;;4.77;75.31
80242;BME280;69556;45.004;7.532;2024-02-21T06:39:16;99409.56;;;4.68;76.89
80242;BME280;69556;45.004;7.532;2024-02-21T06:41:41;99412.19;;;4.68;77.61
80242;BME280;69556;45.004;7.532;2024-02-21T06:44:07;99414.78;;;4.71;76.36
80242;BME280;69556;45.004;7.532;2024-02-21T06:46:32;99420.03;;;4.73;75.43
80242;BME280;69556;45.004;7.532;2024-02-21T06:48:59;99421.78;;;4.72;74.93
80242;BME280;69556;45.004;7.532;2024-02-21T06:51:26;99425.25;;;4.71;76.51
80242;BME280;69556;45.004;7.532;2024-02-21T06:53:53;99431.38;;;4.78;75.94
80242;BME280;69556;45.004;7.532;2024-02-21T06:56:19;99436.63;;;4.82;75.88
80242;BME280;69556;45.004;7.532;2024-02-21T06:58:44;99440.13;;;4.95;76.22
80242;BME280;69556;45.004;7.532;2024-02-21T07:01:10;99440.19;;;5.07;74.52
80242;BME280;69556;45.004;7.532;2024-02-21T07:03:36;99447.19;;;5.22;74.73
80242;BME280;69556;45.004;7.532;2024-02-21T07:06:01;99440.19;;;5.38;72.64
80242;BME280;69556;45.004;7.532;2024-02-21T07:08:27;99447.19;;;5.60;69.78
80242;BME280;69556;45.004;7.532;2024-02-21T07:10:52;99454.16;;;5.88;68.49
80242;BME280;69556;45.004;7.532;2024-02-21T07:13:17;99441.06;;;6.05;67.63
80242;BME280;69556;45.004;7.532;2024-02-21T07:15:43;99450.63;;;6.23;66.43
80242;BME280;69556;45.004;7.532;2024-02-21T07:18:08;99445.31;;;6.39;64.98
80242;BME280;69556;45.004;7.532;2024-02-21T07:20:34;99453.13;;;6.54;64.60
80242;BME280;69556;45.004;7.532;2024-02-21T07:23:02;99453.97;;;6.67;64.30
80242;BME280;69556;45.004;7.532;2024-02-21T07:25:27;99459.13;;;6.82;63.29
80242;BME280;69556;45.004;7.532;2024-02-21T07:27:52;99456.44;;;6.97;63.51
80242;BME280;69556;45.004;7.532;2024-02-21T07:30:18;99460.75;;;7.07;62.33
80242;BME280;69556;45.004;7.532;2024-02-21T07:32:43;99465.03;;;7.21;61.14
80242;BME280;69556;45.004;7.532;2024-02-21T07:35:09;99461.44;;;7.34;60.30
80242;BME280;69556;45.004;7.532;2024-02-21T07:37:37;99463.09;;;7.48;59.58
80242;BME280;69556;45.004;7.532;2024-02-21T07:40:04;99467.34;;;7.63;58.59
80242;BME280;69556;45.004;7.532;2024-02-21T07:42:30;99461.97;;;7.77;58.63
80242;BME280;69556;45.004;7.532;2024-02-21T07:44:55;99453.13;;;7.88;58.58
80242;BME280;69556;45.004;7.532;2024-02-21T07:47:22;99456.41;;;8.09;56.54
80242;BME280;69556;45.004;7.532;2024-02-21T07:49:47;99451.88;;;8.23;56.50
80242;BME280;69556;45.004;7.532;2024-02-21T07:52:14;99450.88;;;8.39;55.71
80242;BME280;69556;45.004;7.532;2024-02-21T07:54:40;99448.97;;;8.50;56.54
80242;BME280;69556;45.004;7.532;2024-02-21T07:57:06;99449.72;;;8.61;57.00
80242;BME280;69556;45.004;7.532;2024-02-21T07:59:32;99450.47;;;8.72;58.01
80242;BME280;69556;45.004;7.532;2024-02-21T08:01:57;99463.47;;;8.83;59.17
80242;BME280;69556;45.004;7.532;2024-02-21T08:04:23;99459.03;;;8.90;59.64
80242;BME280;69556;45.004;7.532;2024-02-21T08:06:54;99465.97;;;8.95;61.20
80242;BME280;69556;45.004;7.532;2024-02-21T08:09:26;99464.97;;;9.04;61.39
80242;BME280;69556;45.004;7.532;2024-02-21T08:11:52;99460.47;;;9.12;61.81
80242;BME280;69556;45.004;7.532;2024-02-21T08:14:17;99459.44;;;9.23;61.56
80242;BME280;69556;45.004;7.532;2024-02-21T08:16:43;99446.19;;;9.28;62.08
80242;BME280;69556;45.004;7.532;2024-02-21T08:19:10;99440.81;;;9.34;62.22
80242;BME280;69556;45.004;7.532;2024-02-21T08:21:36;99447.78;;;9.38;62.28
80242;BME280;69556;45.004;7.532;2024-02-21T08:24:01;99439.78;;;9.44;61.96
80242;BME280;69556;45.004;7.532;2024-02-21T08:26:27;99438.84;;;9.48;60.91
80242;BME280;69556;45.004;7.532;2024-02-21T08:28:55;99446.75;;;9.48;61.06
80242;BME280;69556;45.004;7.532;2024-02-21T08:31:26;99440.50;;;9.55;60.86
80242;BME280;69556;45.004;7.532;2024-02-21T08:34:00;99443.00;;;9.61;60.72
80242;BME280;69556;45.004;7.532;2024-02-21T08:36:35;99441.22;;;9.63;60.88
80242;BME280;69556;45.004;7.532;2024-02-21T08:39:02;99443.66;;;9.76;60.32
80242;BME280;69556;45.004;7.532;2024-02-21T08:41:33;99444.50;;;9.78;59.30
80242;BME280;69556;45.004;7.532;2024-02-21T08:43:59;99455.78;;;9.86;60.10
80242;BME280;69556;45.004;7.532;2024-02-21T08:46:24;99449.53;;;9.91;60.66
80242;BME280;69556;45.004;7.532;2024-02-21T08:48:50;99445.03;;;9.98;60.72
80242;BME280;69556;45.004;7.532;2024-02-21T08:51:22;99443.13;;;10.06;60.65
80242;BME280;69556;45.004;7.532;2024-02-21T08:53:47;99444.81;;;10.10;61.50
80242;BME280;69556;45.004;7.532;2024-02-21T08:56:14;99449.06;;;10.19;61.30
80242;BME280;69556;45.004;7.532;2024-02-21T08:58:40;99450.66;;;10.29;61.74
80242;BME280;69556;45.004;7.532;2024-02-21T09:01:06;99445.19;;;10.38;61.64
80242;BME280;69556;45.004;7.532;2024-02-21T09:03:36;99450.38;;;10.42;61.51
80242;BME280;69556;45.004;7.532;2024-02-21T09:06:01;99445.88;;;10.47;61.87
80242;BME280;69556;45.004;7.532;2024-02-21T09:08:27;99443.91;;;10.58;62.43
80242;BME280;69556;45.004;7.532;2024-02-21T09:10:52;99443.03;;;10.58;62.01
80242;BME280;69556;45.004;7.532;2024-02-21T09:13:18;99440.22;;;10.67;62.00
80242;BME280;69556;45.004;7.532;2024-02-21T09:15:43;99436.59;;;10.71;60.86
80242;BME280;69556;45.004;7.532;2024-02-21T09:18:09;99439.84;;;10.84;60.50
80242;BME280;69556;45.004;7.532;2024-02-21T09:20:34;99440.53;;;10.92;60.91
80242;BME280;69556;45.004;7.532;2024-02-21T09:23:00;99436.22;;;10.88;60.69
80242;BME280;69556;45.004;7.532;2024-02-21T09:25:25;99442.28;;;10.93;59.03
80242;BME280;69556;45.004;7.532;2024-02-21T09:27:51;99431.69;;;10.96;58.79
80242;BME280;69556;45.004;7.532;2024-02-21T09:30:17;99439.50;;;11.00;57.53
80242;BME280;69556;45.004;7.532;2024-02-21T09:32:42;99433.25;;;11.04;57.69
80242;BME280;69556;45.004;7.532;2024-02-21T09:35:08;99435.91;;;11.03;58.25
80242;BME280;69556;45.004;7.532;2024-02-21T09:37:33;99436.69;;;11.08;58.29
80242;BME280;69556;45.004;7.532;2024-02-21T09:39:59;99437.47;;;11.12;58.37
80242;BME280;69556;45.004;7.532;2024-02-21T09:42:36;99435.63;;;11.15;59.18
80242;BME280;69556;45.004;7.532;2024-02-21T09:45:07;99439.03;;;11.20;58.88
80242;BME280;69556;45.004;7.532;2024-02-21T09:47:50;99441.41;;;11.32;59.25
80242;BME280;69556;45.004;7.532;2024-02-21T09:50:22;99440.22;;;11.45;59.42
80242;BME280;69556;45.004;7.532;2024-02-21T09:52:51;99441.16;;;11.43;58.68
80242;BME280;69556;45.004;7.532;2024-02-21T09:55:18;99438.56;;;11.41;58.67
80242;BME280;69556;45.004;7.532;2024-02-21T09:57:44;99438.44;;;11.46;59.22
80242;BME280;69556;45.004;7.532;2024-02-21T10:00:10;99436.59;;;11.49;59.47
80242;BME280;69556;45.004;7.532;2024-02-21T10:02:36;99445.28;;;11.55;58.33
80242;BME280;69556;45.004;7.532;2024-02-21T10:05:02;99439.84;;;11.61;58.57
80242;BME280;69556;45.004;7.532;2024-02-21T10:07:29;99441.44;;;11.68;58.58
80242;BME280;69556;45.004;7.532;2024-02-21T10:10:04;99443.88;;;11.77;58.86
80242;BME280;69556;45.004;7.532;2024-02-21T10:12:30;99445.50;;;11.82;58.81
80242;BME280;69556;45.004;7.532;2024-02-21T10:15:03;99435.78;;;11.83;58.96
80242;BME280;69556;45.004;7.532;2024-02-21T10:17:28;99430.41;;;11.86;59.05
80242;BME280;69556;45.004;7.532;2024-02-21T10:19:54;99440.97;;;11.87;59.47
80242;BME280;69556;45.004;7.532;2024-02-21T10:22:19;99441.56;;;11.99;59.72
80242;BME280;69556;45.004;7.532;2024-02-21T10:24:46;99445.16;;;11.96;60.15
80242;BME280;69556;45.004;7.532;2024-02-21T10:27:11;99441.63;;;11.96;61.10
80242;BME280;69556;45.004;7.532;2024-02-21T10:29:38;99447.53;;;12.07;61.39
80242;BME280;69556;45.004;7.532;2024-02-21T10:32:13;99444.59;;;12.17;61.45
80242;BME280;69556;45.004;7.532;2024-02-21T10:34:40;99447.06;;;12.23;61.49
80242;BME280;69556;45.004;7.532;2024-02-21T10:37:08;99440.78;;;12.27;61.44
80242;BME280;69556;45.004;7.532;2024-02-21T10:39:38;99444.34;;;12.26;61.04
80242;BME280;69556;45.004;7.532;2024-02-21T10:42:04;99450.41;;;12.31;61.00
80242;BME280;69556;45.004;7.532;2024-02-21T10:44:32;99448.47;;;12.36;61.62
80242;BME280;69556;45.004;7.532;2024-02-21T10:46:58;99435.06;;;12.43;61.49
80242;BME280;69556;45.004;7.532;2024-02-21T10:49:26;99428.75;;;12.48;61.85
80242;BME280;69556;45.004;7.532;2024-02-21T10:54:58;99422.88;;;12.68;62.94
80242;BME280;69556;45.004;7.532;2024-02-21T10:57:26;99420.09;;;12.72;64.99
80242;BME280;69556;45.004;7.532;2024-02-21T10:59:53;99411.00;;;12.81;63.97
80242;BME280;69556;45.004;7.532;2024-02-21T11:02:20;99413.41;;;12.89;63.06
80242;BME280;69556;45.004;7.532;2024-02-21T11:04:46;99403.63;;;12.92;63.35
80242;BME280;69556;45.004;7.532;2024-02-21T11:07:12;99401.53;;;13.02;64.88
80242;BME280;69556;45.004;7.532;2024-02-21T11:09:38;99401.16;;;13.15;64.33
80242;BME280;69556;45.004;7.532;2024-02-21T11:12:05;99392.13;;;13.21;64.98
80242;BME280;69556;45.004;7.532;2024-02-21T11:14:31;99386.78;;;13.22;64.83
80242;BME280;69556;45.004;7.532;2024-02-21T11:17:15;99395.66;;;13.21;64.44
80242;BME280;69556;45.004;7.532;2024-02-21T11:19:58;99385.75;;;13.27;64.28
80242;BME280;69556;45.004;7.532;2024-02-21T11:22:26;99373.13;;;13.35;64.92
80242;BME280;69556;45.004;7.532;2024-02-21T11:25:06;99371.00;;;13.46;64.12
80242;BME280;69556;45.004;7.532;2024-02-21T11:27:33;99368.94;;;13.54;63.65
80242;BME280;69556;45.004;7.532;2024-02-21T11:29:58;99358.16;;;13.60;63.41
80242;BME280;69556;45.004;7.532;2024-02-21T11:32:25;99360.69;;;13.63;64.15
80242;BME280;69556;45.004;7.532;2024-02-21T11:35:00;99356.72;;;13.76;63.32
80242;BME280;69556;45.004;7.532;2024-02-21T11:37:31;99349.50;;;13.80;64.16
80242;BME280;69556;45.004;7.532;2024-02-21T11:40:02;99349.66;;;13.75;63.67
80242;BME280;69556;45.004;7.532;2024-02-21T11:42:29;99342.50;;;13.77;63.65
80242;BME280;69556;45.004;7.532;2024-02-21T11:44:56;99349.81;;;13.71;62.62
80242;BME280;69556;45.004;7.532;2024-02-21T11:47:24;99337.69;;;13.63;62.73
80242;BME280;69556;45.004;7.532;2024-02-21T11:49:49;99342.63;;;13.74;63.19
80242;BME280;69556;45.004;7.532;2024-02-21T11:52:19;99338.22;;;13.73;62.03
80242;BME280;69556;45.004;7.532;2024-02-21T11:54:47;99330.94;;;13.80;62.48
80242;BME280;69556;45.004;7.532;2024-02-21T11:57:13;99320.03;;;13.87;62.02
80242;BME280;69556;45.004;7.532;2024-02-21T11:59:40;99326.88;;;13.94;62.21
80242;BME280;69556;45.004;7.532;2024-02-21T12:02:06;99307.31;;;13.97;60.62
80242;BME280;69556;45.004;7.532;2024-02-21T12:04:32;99313.97;;;14.08;59.93
80242;BME280;69556;45.004;7.532;2024-02-21T12:06:57;99302.38;;;14.11;59.62
80242;BME280;69556;45.004;7.532;2024-02-21T12:09:24;99303.03;;;14.18;59.32
80242;BME280;69556;45.004;7.532;2024-02-21T12:11:59;99289.44;;;14.25;59.42
80242;BME280;69556;45.004;7.532;2024-02-21T12:14:25;99285.00;;;14.26;59.50
80242;BME280;69556;45.004;7.532;2024-02-21T12:16:51;99268.84;;;14.32;59.05
80242;BME280;69556;45.004;7.532;2024-02-21T12:19:17;99270.13;;;14.45;56.78
80242;BME280;69556;45.004;7.532;2024-02-21T12:21:43;99264.75;;;14.46;56.37
80242;BME280;69556;45.004;7.532;2024-02-21T12:24:16;99261.00;;;14.52;56.25
80242;BME280;69556;45.004;7.532;2024-02-21T12:26:42;99248.66;;;14.51;57.23
80242;BME280;69556;45.004;7.532;2024-02-21T12:29:08;99249.63;;;14.70;58.41
80242;BME280;69556;45.004;7.532;2024-02-21T12:31:37;99251.09;;;14.79;55.04
80242;BME280;69556;45.004;7.532;2024-02-21T12:34:03;99243.44;;;14.93;55.19
80242;BME280;69556;45.004;7.532;2024-02-21T12:36:29;99235.25;;;14.97;55.72
80242;BME280;69556;45.004;7.532;2024-02-21T12:38:54;99239.13;;;15.11;55.16
80242;BME280;69556;45.004;7.532;2024-02-21T12:41:20;99225.50;;;15.18;54.51
80242;BME280;69556;45.004;7.532;2024-02-21T12:43:45;99229.56;;;15.27;53.07
80242;BME280;69556;45.004;7.532;2024-02-21T12:46:10;99233.63;;;15.35;52.62
80242;BME280;69556;45.004;7.532;2024-02-21T12:48:36;99231.22;;;15.51;52.16
80242;BME280;69556;45.004;7.532;2024-02-21T12:51:01;99228.78;;;15.45;51.62
80242;BME280;69556;45.004;7.532;2024-02-21T12:53:27;99219.63;;;15.52;52.41
80242;BME280;69556;45.004;7.532;2024-02-21T12:55:53;99223.75;;;15.59;53.85
80242;BME280;69556;45.004;7.532;2024-02-21T12:58:18;99218.50;;;15.58;54.82
80242;BME280;69556;45.004;7.532;2024-02-21T13:00:43;99212.44;;;15.54;52.03
80242;BME280;69556;45.004;7.532;2024-02-21T13:03:10;99211.50;;;15.55;50.68
80242;BME280;69556;45.004;7.532;2024-02-21T13:05:38;99208.78;;;15.57;50.34